createdAt,value
2018-06-11T00:02:56.786Z,43.70
2018-06-11T00:08:00.045Z,43.70
2018-06-11T00:13:03.483Z,43.70
2018-06-11T00:18:06.721Z,43.70
2018-06-11T00:23:10.370Z,43.60
2018-06-11T00:28:13.581Z,43.70
2018-06-11T00:33:16.778Z,43.70
2018-06-11T00:38:19.944Z,43.70
2018-06-11T00:43:23.458Z,43.70
2018-06-11T00:48:26.739Z,43.70
2018-06-11T00:53:29.935Z,43.70
2018-06-11T00:58:33.390Z,43.70
2018-06-11T01:03:36.592Z,43.70
2018-06-11T01:08:39.782Z,43.60
2018-06-11T01:13:42.956Z,43.70
2018-06-11T01:18:46.479Z,43.60
2018-06-11T01:23:49.893Z,43.70
2018-06-11T01:28:53.193Z,43.70
2018-06-11T01:33:56.645Z,43.60
2018-06-11T01:38:59.861Z,43.60
2018-06-11T01:44:03.327Z,43.60
2018-06-11T01:49:06.505Z,43.60
2018-06-11T01:54:09.717Z,43.60
2018-06-11T01:59:13.197Z,43.60
2018-06-11T02:04:16.450Z,43.60
2018-06-11T02:09:19.726Z,43.60
2018-06-11T02:14:22.959Z,43.60
2018-06-11T02:19:26.389Z,43.60
2018-06-11T02:24:29.885Z,43.60
2018-06-11T02:29:33.158Z,43.60
2018-06-11T02:34:36.342Z,43.60
2018-06-11T02:39:39.845Z,43.60
2018-06-11T02:44:43.578Z,43.60
2018-06-11T02:49:46.792Z,43.50
2018-06-11T02:54:50.056Z,43.50
2018-06-11T02:59:53.299Z,43.50
2018-06-11T03:04:56.804Z,43.60
2018-06-11T03:09:59.980Z,43.60
2018-06-11T03:15:03.165Z,43.60
2018-06-11T03:20:06.772Z,43.60
2018-06-11T03:25:09.986Z,43.60
2018-06-11T03:30:13.342Z,43.50
2018-06-11T03:35:16.604Z,43.50
2018-06-11T03:40:19.884Z,43.60
2018-06-11T03:45:23.065Z,43.60
2018-06-11T03:50:26.256Z,43.50
2018-06-11T03:55:29.444Z,43.50
2018-06-11T04:00:33.143Z,43.50
2018-06-11T04:05:36.381Z,43.50
2018-06-11T04:10:39.592Z,43.50
2018-06-11T04:15:42.782Z,43.50
2018-06-11T04:20:46.041Z,43.50
2018-06-11T04:25:49.218Z,44.10
2018-06-11T04:30:52.425Z,43.50
2018-06-11T04:35:55.577Z,43.50
2018-06-11T04:40:58.758Z,43.50
2018-06-11T04:46:02.858Z,43.40
2018-06-11T04:51:06.055Z,43.50
2018-06-11T04:56:09.304Z,43.50
2018-06-11T05:01:12.917Z,43.50
2018-06-11T05:06:16.075Z,43.40
2018-06-11T05:11:19.363Z,43.40
2018-06-11T05:16:22.647Z,43.40
2018-06-11T05:21:25.825Z,43.30
2018-06-11T05:26:29.139Z,43.40
2018-06-11T05:31:32.331Z,43.30
2018-06-11T05:36:35.560Z,43.40
2018-06-11T05:41:38.835Z,43.40
2018-06-11T05:46:42.306Z,43.40
2018-06-11T05:51:45.864Z,43.40
2018-06-11T05:56:49.329Z,43.40
2018-06-11T06:01:52.527Z,43.40
2018-06-11T06:06:55.862Z,43.30
2018-06-11T06:11:59.099Z,43.40
2018-06-11T06:17:02.460Z,43.40
2018-06-11T06:22:05.819Z,43.40
2018-06-11T06:27:09.165Z,43.40
2018-06-11T06:32:12.344Z,43.30
2018-06-11T06:37:15.674Z,43.20
2018-06-11T06:42:18.932Z,43.20
2018-06-11T06:47:22.165Z,43.30
2018-06-11T06:52:25.646Z,43.30
2018-06-11T06:57:28.934Z,43.30
2018-06-11T07:02:32.372Z,43.30
2018-06-11T07:07:35.946Z,43.30
2018-06-11T07:12:39.190Z,43.30
2018-06-11T07:17:42.660Z,43.30
2018-06-11T07:22:45.829Z,43.20
2018-06-11T07:27:49.013Z,43.20
2018-06-11T07:32:52.366Z,43.80
2018-06-11T07:37:55.603Z,43.10
2018-06-11T07:42:58.818Z,43.70
2018-06-11T07:48:02.275Z,43.10
2018-06-11T07:53:05.785Z,43.70
2018-06-11T07:58:09.088Z,43.10
2018-06-11T08:03:14.283Z,43.10
2018-06-11T08:08:17.975Z,43.10
2018-06-11T08:13:21.481Z,43.00
2018-06-11T08:18:24.685Z,43.10
2018-06-11T08:23:28.007Z,43.00
2018-06-11T08:28:31.488Z,42.90
2018-06-11T08:33:34.706Z,42.90
2018-06-11T08:38:38.051Z,42.70
2018-06-11T08:43:41.423Z,42.70
2018-06-11T08:48:44.705Z,42.70
2018-06-11T08:53:48.480Z,42.60
2018-06-11T08:58:51.789Z,42.60
2018-06-11T09:03:55.191Z,42.50
2018-06-11T09:08:58.921Z,42.50
2018-06-11T09:14:02.302Z,42.50
2018-06-11T09:19:05.468Z,42.40
2018-06-11T09:24:08.653Z,42.60
2018-06-11T09:29:12.224Z,43.00
2018-06-11T09:34:15.526Z,42.60
2018-06-11T09:39:19.262Z,42.50
2018-06-11T09:44:22.547Z,42.50
2018-06-11T09:49:26.261Z,42.40
2018-06-11T09:54:30.198Z,42.50
2018-06-11T09:59:34.035Z,42.40
2018-06-11T10:04:37.274Z,42.40
2018-06-11T10:09:40.541Z,42.40
2018-06-11T10:14:44.246Z,42.40
2018-06-11T10:19:47.576Z,42.40
2018-06-11T10:24:51.365Z,42.40
2018-06-11T10:29:54.651Z,42.40
2018-06-11T10:34:57.864Z,42.40
2018-06-11T10:40:01.173Z,42.30
2018-06-11T10:45:04.608Z,42.40
2018-06-11T10:50:07.871Z,42.30
2018-06-11T10:55:11.357Z,42.40
2018-06-11T11:00:15.017Z,42.40
2018-06-11T11:05:18.548Z,42.30
2018-06-11T11:10:21.819Z,42.40
2018-06-11T11:15:25.161Z,42.40
2018-06-11T11:20:28.454Z,42.40
2018-06-11T11:25:32.275Z,42.50
2018-06-11T11:30:35.589Z,41.90
2018-06-11T11:35:38.890Z,42.50
2018-06-11T11:40:42.277Z,42.30
2018-06-11T11:45:45.526Z,42.40
2018-06-11T11:50:48.771Z,42.40
2018-06-11T11:55:52.259Z,42.30
2018-06-11T12:00:55.441Z,42.60
2018-06-11T12:05:58.616Z,42.30
2018-06-11T12:11:01.840Z,42.20
2018-06-11T12:16:05.080Z,42.30
2018-06-11T12:21:08.461Z,42.30
2018-06-11T12:26:11.827Z,42.30
2018-06-11T12:31:15.289Z,42.30
2018-06-11T12:36:18.618Z,42.20
2018-06-11T12:41:22.321Z,42.20
2018-06-11T12:46:26.338Z,42.20
2018-06-11T12:51:29.560Z,42.20
2018-06-11T12:56:32.788Z,42.20
2018-06-11T13:01:36.188Z,42.20
2018-06-11T13:06:39.396Z,42.20
2018-06-11T13:11:42.760Z,42.20
2018-06-11T13:16:47.178Z,42.10
2018-06-11T13:21:50.525Z,42.10
2018-06-11T13:26:53.869Z,42.10
2018-06-11T13:31:57.521Z,42.10
2018-06-11T13:37:00.830Z,42.20
2018-06-11T13:42:04.072Z,42.10
2018-06-11T13:47:07.330Z,42.10
2018-06-11T13:52:10.922Z,42.10
2018-06-11T13:57:14.636Z,42.20
2018-06-11T14:02:18.331Z,42.00
2018-06-11T14:07:22.652Z,42.10
2018-06-11T14:12:26.020Z,42.00
2018-06-11T14:17:29.287Z,42.10
2018-06-11T14:22:32.545Z,42.10
2018-06-11T14:27:35.840Z,42.00
2018-06-11T14:32:39.159Z,42.10
2018-06-11T14:37:42.442Z,42.00
2018-06-11T14:42:45.779Z,42.00
2018-06-11T14:47:49.266Z,42.00
2018-06-11T14:52:52.610Z,42.00
2018-06-11T14:57:57.264Z,42.00
2018-06-11T15:03:00.728Z,42.10
2018-06-11T15:08:04.261Z,41.90
2018-06-11T15:13:07.858Z,41.90
2018-06-11T15:18:11.131Z,42.00
2018-06-11T15:23:15.096Z,41.90
2018-06-11T15:28:18.617Z,41.90
2018-06-11T15:33:22.110Z,41.90
2018-06-11T15:38:25.637Z,41.80
2018-06-11T15:43:29.049Z,41.70
2018-06-11T15:48:32.446Z,41.80
2018-06-11T15:53:35.742Z,41.70
2018-06-11T15:58:39.359Z,41.90
2018-06-11T16:03:42.596Z,41.70
2018-06-11T16:08:46.044Z,41.70
2018-06-11T16:13:49.365Z,41.80
2018-06-11T16:18:53.051Z,41.80
2018-06-11T16:23:56.324Z,41.80
2018-06-11T16:28:59.564Z,41.60
2018-06-11T16:34:03.829Z,41.70
2018-06-11T16:39:08.342Z,41.70
2018-06-11T16:44:11.796Z,41.70
2018-06-11T16:49:15.357Z,35.80
2018-06-11T16:54:18.708Z,33.60
2018-06-11T16:59:22.079Z,32.60
2018-06-11T17:04:25.306Z,32.20
2018-06-11T17:09:29.101Z,31.90
2018-06-11T17:14:32.485Z,31.50
2018-06-11T17:19:35.820Z,32.10
2018-06-11T17:24:39.275Z,32.40
2018-06-11T17:29:42.720Z,33.60
2018-06-11T17:34:46.107Z,33.80
2018-06-11T17:39:49.517Z,33.90
2018-06-11T17:44:52.809Z,33.90
2018-06-11T17:49:56.423Z,34.00
2018-06-11T17:54:59.661Z,34.60
2018-06-11T18:00:03.870Z,34.60
2018-06-11T18:05:07.362Z,34.60
2018-06-11T18:10:11.007Z,34.50
2018-06-11T18:15:14.530Z,34.60
2018-06-11T18:20:18.055Z,34.50
2018-06-11T18:25:21.435Z,34.20
2018-06-11T18:30:24.873Z,34.40
2018-06-11T18:35:28.272Z,34.00
2018-06-11T18:40:31.642Z,33.60
2018-06-11T18:45:35.078Z,33.10
2018-06-11T18:50:40.060Z,32.50
2018-06-11T18:55:46.634Z,32.90
2018-06-11T19:00:49.903Z,33.50
2018-06-11T19:05:53.200Z,33.40
2018-06-11T19:10:57.245Z,33.40
2018-06-11T19:16:00.569Z,33.70
2018-06-11T19:21:03.869Z,33.80
2018-06-11T19:26:07.231Z,33.50
2018-06-11T19:31:12.458Z,33.50
2018-06-11T19:36:15.815Z,33.20
2018-06-11T19:41:19.298Z,33.60
2018-06-11T19:46:22.600Z,33.80
2018-06-11T19:51:25.957Z,34.20
2018-06-11T19:56:29.937Z,34.40
2018-06-11T20:01:33.224Z,34.00
2018-06-11T20:06:36.572Z,34.00
2018-06-11T20:11:40.008Z,34.30
2018-06-11T20:16:44.568Z,34.60
2018-06-11T20:21:50.371Z,34.90
2018-06-11T20:26:53.955Z,34.80
2018-06-11T20:31:57.485Z,35.10
2018-06-11T20:37:01.527Z,35.30
2018-06-11T20:42:04.840Z,35.70
2018-06-11T20:47:08.185Z,35.70
2018-06-11T20:52:11.920Z,34.90
2018-06-11T20:57:15.358Z,35.40
2018-06-11T21:02:19.721Z,35.60
2018-06-11T21:07:23.025Z,35.90
2018-06-11T21:12:26.378Z,36.00
2018-06-11T21:17:29.804Z,36.30
2018-06-11T21:22:33.139Z,36.60
2018-06-11T21:27:36.475Z,37.30
2018-06-11T21:32:40.524Z,38.20
2018-06-11T21:37:44.233Z,39.00
2018-06-11T21:42:47.711Z,39.60
2018-06-11T21:47:51.062Z,39.10
2018-06-11T21:52:54.366Z,37.60
2018-06-11T21:57:57.630Z,37.40
2018-06-11T22:03:03.918Z,37.80
2018-06-11T22:08:08.075Z,39.10
2018-06-11T22:13:11.358Z,39.80
2018-06-11T22:18:14.702Z,40.10
2018-06-11T22:23:18.020Z,40.60
2018-06-11T22:28:21.284Z,41.20
2018-06-11T22:33:26.862Z,41.70
2018-06-11T22:38:30.340Z,42.00
2018-06-11T22:43:33.642Z,42.10
2018-06-11T22:48:37.010Z,43.50
2018-06-11T22:53:41.690Z,43.30
2018-06-11T22:58:45.633Z,43.20
2018-06-11T23:03:49.248Z,43.60
2018-06-11T23:08:52.532Z,43.40
2018-06-11T23:13:56.028Z,43.80
2018-06-11T23:19:00.075Z,44.00
2018-06-11T23:24:03.397Z,44.20
2018-06-11T23:29:06.798Z,44.30
2018-06-11T23:34:10.162Z,44.70
2018-06-11T23:39:13.677Z,45.00
2018-06-11T23:44:16.889Z,45.30
2018-06-11T23:49:20.144Z,45.30
2018-06-11T23:54:23.329Z,45.60
2018-06-11T23:59:26.883Z,45.70
